Time;durP1;ratioP1;P1;durP2;ratioP2;P2;SDS_P1;SDS_P2;PMS_P1;PMS_P2;Temp;Humidity;BMP_temperature;BMP_pressure;BME280_temperature;BME280_humidity;BME280_pressure;Samples;Min_cycle;Max_cycle;Signal;HPM_P1;HPM_P2
2022/08/02 00:00:45;;;;;;;2.50;1.98;;;;;;;21.72;55.86;100600.72;5036598;28;20032;-72
2022/08/02 00:03:13;;;;;;;3.47;2.08;;;;;;;21.78;55.83;100598.50;5036567;28;20381;-71
2022/08/02 00:05:38;;;;;;;5.53;1.90;;;;;;;21.83;55.68;100606.22;5036577;28;20053;-73
2022/08/02 00:08:04;;;;;;;4.38;2.45;;;;;;;21.85;55.70;100594.44;5036626;28;20473;-72
2022/08/02 00:10:29;;;;;;;2.80;1.95;;;;;;;21.87;55.61;100589.88;5036295;28;20034;-72
2022/08/02 00:12:55;;;;;;;4.28;2.08;;;;;;;21.90;55.25;100594.16;5035062;28;20025;-71
2022/08/02 00:15:20;;;;;;;4.45;2.30;;;;;;;21.85;55.49;100597.13;5035306;28;20036;-72
2022/08/02 00:17:47;;;;;;;2.40;1.50;;;;;;;21.91;55.35;100592.34;5036230;28;20582;-72
2022/08/02 00:20:12;;;;;;;3.70;1.75;;;;;;;21.94;55.19;100597.47;5036066;28;20435;-72
2022/08/02 00:22:38;;;;;;;4.85;1.83;;;;;;;21.95;55.26;100601.91;5036062;28;20021;-72
2022/08/02 00:25:06;;;;;;;2.90;1.65;;;;;;;22.01;55.24;100604.16;5036078;28;20039;-72
2022/08/02 00:27:32;;;;;;;3.22;1.92;;;;;;;22.06;54.86;100602.91;5035965;28;20021;-72
2022/08/02 00:30:00;;;;;;;2.50;1.77;;;;;;;22.12;54.65;100596.28;5034787;28;20029;-71
2022/08/02 00:32:25;;;;;;;2.33;1.50;;;;;;;22.12;54.82;100607.84;5034953;28;20080;-71
2022/08/02 00:34:51;;;;;;;3.10;1.60;;;;;;;22.16;54.49;100600.50;5034615;28;20389;-71
2022/08/02 00:37:16;;;;;;;3.38;1.50;;;;;;;22.31;54.39;100596.81;5034454;28;20493;-71
2022/08/02 00:39:43;;;;;;;2.90;1.52;;;;;;;22.26;54.23;100601.63;5034803;28;20426;-72
2022/08/02 00:42:12;;;;;;;4.63;1.70;;;;;;;22.21;54.33;100595.69;5034658;28;20052;-72
2022/08/02 00:44:37;;;;;;;4.15;1.65;;;;;;;22.20;54.23;100606.50;5034664;28;20547;-72
2022/08/02 00:47:03;;;;;;;1.88;1.45;;;;;;;22.18;54.42;100595.03;5034433;28;20030;-71
2022/08/02 00:49:28;;;;;;;2.65;1.67;;;;;;;22.20;54.39;100604.69;5034296;28;20029;-72
2022/08/02 00:51:54;;;;;;;2.42;1.35;;;;;;;22.27;54.36;100602.47;5034638;28;20461;-73
2022/08/02 00:54:19;;;;;;;3.22;1.80;;;;;;;22.31;54.03;100601.31;5017758;28;20030;-72
2022/08/02 00:56:45;;;;;;;4.10;1.42;;;;;;;22.30;53.91;100603.13;5035675;28;20079;-72
2022/08/02 00:59:10;;;;;;;2.08;1.48;;;;;;;22.33;53.85;100605.56;5034184;28;20079;-72
2022/08/02 01:01:38;;;;;;;5.50;1.52;;;;;;;22.55;53.50;100609.50;5034000;28;20071;-72
2022/08/02 01:04:09;;;;;;;3.05;1.40;;;;;;;22.60;53.06;100616.25;5035319;28;20035;-72
2022/08/02 01:06:37;;;;;;;2.58;1.52;;;;;;;22.55;53.22;100604.13;5035441;28;20071;-72
2022/08/02 01:09:04;;;;;;;2.67;1.70;;;;;;;22.40;54.24;100602.50;5035290;28;20100;-72
2022/08/02 01:11:31;;;;;;;3.13;1.80;;;;;;;22.29;54.56;100598.72;5034207;28;20030;-72
2022/08/02 01:14:03;;;;;;;2.13;1.55;;;;;;;22.62;53.80;100600.06;5035152;28;20029;-71
2022/08/02 01:16:32;;;;;;;3.78;1.83;;;;;;;22.62;53.75;100597.38;5033695;28;20492;-72
2022/08/02 01:19:33;;;;;;;5.18;1.80;;;;;;;22.68;54.37;100594.28;5034997;28;20033;-72
2022/08/02 01:22:28;;;;;;;2.42;1.85;;;;;;;22.67;54.17;100599.78;5034037;28;20018;-73
2022/08/02 01:25:41;;;;;;;2.50;1.67;;;;;;;22.64;54.55;100598.16;5025252;28;20115;-72
2022/08/02 01:28:40;;;;;;;3.00;1.63;;;;;;;22.66;54.58;100593.56;5028921;28;20041;-72
2022/08/02 01:31:27;;;;;;;2.92;1.52;;;;;;;22.68;54.85;100596.97;5034779;28;20457;-72
2022/08/02 01:34:15;;;;;;;2.88;1.77;;;;;;;22.56;54.91;100596.00;5033466;28;20072;-72
2022/08/02 01:36:45;;;;;;;2.72;1.70;;;;;;;22.52;55.07;100594.50;5034559;28;20041;-72
2022/08/02 01:39:14;;;;;;;3.45;1.90;;;;;;;22.37;55.66;100601.72;5035042;28;20029;-72
2022/08/02 01:41:41;;;;;;;3.20;2.17;;;;;;;22.13;56.33;100598.88;5034703;28;20017;-72
2022/08/02 01:44:12;;;;;;;2.88;1.83;;;;;;;22.12;56.93;100601.63;5033340;28;20025;-72
2022/08/02 01:46:40;;;;;;;3.78;2.20;;;;;;;21.86;57.63;100596.19;5034308;28;20033;-72
2022/08/02 01:49:11;;;;;;;3.40;2.35;;;;;;;21.79;57.44;100599.34;5034521;28;20462;-73
2022/08/02 01:54:28;;;;;;;3.05;1.73;;;;;;;21.46;58.99;100602.34;5034489;28;20079;-73
2022/08/02 01:56:55;;;;;;;2.08;1.88;;;;;;;21.35;58.91;100597.72;5034498;28;20022;-73
2022/08/02 01:59:22;;;;;;;2.75;2.00;;;;;;;21.40;58.96;100601.81;5032898;28;20033;-73
2022/08/02 02:01:50;;;;;;;3.25;2.10;;;;;;;21.22;59.78;100600.25;5034326;28;20033;-72
2022/08/02 02:04:18;;;;;;;2.47;1.67;;;;;;;21.23;59.34;100599.31;5032861;28;20040;-72
2022/08/02 02:06:45;;;;;;;3.08;1.85;;;;;;;21.21;59.18;100598.53;5033973;28;20021;-72
2022/08/02 02:09:15;;;;;;;2.47;1.90;;;;;;;21.25;58.95;100602.72;5032910;28;20052;-72
2022/08/02 02:11:43;;;;;;;3.63;2.20;;;;;;;21.08;59.56;100603.78;5032827;28;20361;-72
2022/08/02 02:14:11;;;;;;;3.13;2.15;;;;;;;20.97;59.67;100611.59;5032818;28;20025;-73
2022/08/02 02:16:41;;;;;;;3.45;2.00;;;;;;;21.02;59.45;100613.97;5032772;28;20033;-72
2022/08/02 02:19:08;;;;;;;3.40;2.00;;;;;;;20.86;59.85;100612.25;5033962;28;20029;-73
2022/08/02 02:21:34;;;;;;;3.10;1.83;;;;;;;20.86;59.55;100622.06;5033969;28;20060;-72
2022/08/02 02:23:59;;;;;;;4.07;2.00;;;;;;;20.83;59.76;100620.47;5033913;28;20033;-73
2022/08/02 02:26:27;;;;;;;2.70;2.10;;;;;;;20.87;59.55;100621.13;5032556;28;20071;-72
2022/08/02 02:28:54;;;;;;;5.68;2.40;;;;;;;21.03;59.51;100627.25;5032592;28;20104;-72
2022/08/02 02:31:24;;;;;;;3.65;2.03;;;;;;;21.16;59.17;100630.03;5016069;28;20468;-72
2022/08/02 02:34:01;;;;;;;3.08;2.00;;;;;;;21.20;58.87;100630.69;5032386;28;20021;-73
2022/08/02 02:36:28;;;;;;;2.97;2.28;;;;;;;20.89;60.28;100630.75;5033476;28;20124;-73
2022/08/02 02:38:58;;;;;;;3.50;2.25;;;;;;;20.85;60.41;100631.03;5033785;28;20112;-74
2022/08/02 02:41:25;;;;;;;3.13;2.50;;;;;;;20.92;60.22;100632.38;5033648;28;20025;-73
2022/08/02 02:43:54;;;;;;;3.60;2.58;;;;;;;20.71;60.78;100631.03;5032316;28;20079;-73
2022/08/02 02:46:20;;;;;;;5.55;2.50;;;;;;;21.05;60.36;100635.16;5033593;28;20036;-73
2022/08/02 02:48:46;;;;;;;4.28;2.40;;;;;;;20.89;60.75;100633.41;5016186;28;20026;-73
2022/08/02 02:51:13;;;;;;;4.18;2.72;;;;;;;20.33;63.37;100632.28;5015770;28;20032;-73
2022/08/02 02:53:41;;;;;;;5.18;3.00;;;;;;;20.70;62.35;100643.47;5033567;28;20488;-73
2022/08/02 02:56:08;;;;;;;3.85;2.50;;;;;;;20.77;62.16;100642.19;5032258;28;20116;-73
2022/08/02 02:58:33;;;;;;;3.53;2.47;;;;;;;20.35;63.48;100641.06;5033343;28;20053;-73
2022/08/02 03:03:44;;;;;;;7.53;3.20;;;;;;;20.28;63.74;100646.84;5018451;28;20091;-73
2022/08/02 03:06:10;;;;;;;5.93;2.80;;;;;;;20.29;64.31;100641.41;5033288;28;20184;-73
2022/08/02 03:08:35;;;;;;;3.13;2.70;;;;;;;20.41;63.44;100646.03;5033327;28;20124;-72
2022/08/02 03:11:01;;;;;;;5.00;2.83;;;;;;;20.30;64.30;100653.78;5033139;28;20359;-73
2022/08/02 03:13:27;;;;;;;3.30;2.97;;;;;;;20.40;63.91;100643.47;5031920;28;20056;-73
2022/08/02 03:15:53;;;;;;;5.43;3.20;;;;;;;20.64;62.97;100647.41;5033462;28;20047;-73
2022/08/02 03:18:30;;;;;;;5.05;3.30;;;;;;;20.63;63.75;100650.16;5033338;28;20411;-73
2022/08/02 03:21:05;;;;;;;5.07;3.17;;;;;;;20.79;63.24;100650.13;5031933;28;20036;-72
2022/08/02 03:23:31;;;;;;;4.82;2.85;;;;;;;20.90;62.23;100651.19;5031910;28;20025;-72
2022/08/02 03:26:00;;;;;;;4.63;2.72;;;;;;;21.01;62.03;100649.66;5033634;28;20025;-72
2022/08/02 03:28:26;;;;;;;5.70;2.67;;;;;;;21.15;61.41;100649.69;5033047;28;20033;-72
2022/08/02 03:30:52;;;;;;;5.38;2.72;;;;;;;21.15;61.27;100647.03;5033105;28;20029;-72
2022/08/02 03:33:19;;;;;;;7.03;2.65;;;;;;;21.20;61.13;100646.72;5033158;28;20116;-72
2022/08/02 03:35:47;;;;;;;3.67;2.70;;;;;;;21.16;61.32;100654.06;5032940;28;20041;-73
2022/08/02 03:38:15;;;;;;;2.75;2.22;;;;;;;21.11;61.34;100654.34;5032878;28;20504;-73
2022/08/02 03:40:45;;;;;;;3.75;2.28;;;;;;;21.13;61.33;100656.94;5031858;28;20384;-72
2022/08/02 03:43:14;;;;;;;2.83;2.20;;;;;;;21.14;61.49;100656.84;5032995;28;20035;-73
2022/08/02 03:45:43;;;;;;;3.08;2.30;;;;;;;21.08;61.89;100656.34;5033018;28;20025;-72
2022/08/02 03:48:10;;;;;;;2.78;2.13;;;;;;;21.12;61.54;100661.41;5032904;28;20040;-71
2022/08/02 03:50:37;;;;;;;4.35;2.72;;;;;;;21.11;61.49;100661.53;5032889;28;20030;-72
2022/08/02 03:53:03;;;;;;;4.25;2.35;;;;;;;21.15;61.33;100661.22;5031580;28;20060;-72
2022/08/02 03:55:29;;;;;;;2.72;2.13;;;;;;;21.17;61.38;100666.47;5031605;28;20026;-72
2022/08/02 03:57:54;;;;;;;3.20;2.20;;;;;;;21.20;61.15;100673.44;5031637;28;20032;-73
2022/08/02 04:00:21;;;;;;;3.50;2.20;;;;;;;21.12;61.73;100666.75;5032890;28;20372;-73
2022/08/02 04:02:47;;;;;;;5.00;2.80;;;;;;;21.12;61.72;100668.56;5032854;28;20087;-72
2022/08/02 04:05:13;;;;;;;3.75;2.28;;;;;;;21.19;61.22;100674.41;5032597;28;20025;-71
2022/08/02 04:07:38;;;;;;;4.20;2.53;;;;;;;21.20;61.05;100674.31;5032607;28;20026;-72
2022/08/02 04:10:05;;;;;;;4.65;2.60;;;;;;;21.24;61.38;100672.31;5031664;28;20021;-72
2022/08/02 04:12:31;;;;;;;4.47;2.28;;;;;;;21.24;61.34;100674.97;5032818;28;20033;-72
2022/08/02 04:14:58;;;;;;;4.32;2.70;;;;;;;21.34;60.98;100676.16;5032630;28;20080;-72
2022/08/02 04:17:24;;;;;;;3.40;2.67;;;;;;;21.42;61.02;100675.69;5036158;28;20029;-71
2022/08/02 04:19:54;;;;;;;5.53;3.35;;;;;;;21.20;61.93;100684.13;5036077;28;20033;-71
2022/08/02 04:22:38;;;;;;;2.97;2.30;;;;;;;21.30;61.81;100683.47;5036129;28;20132;-72
2022/08/02 04:25:06;;;;;;;5.55;3.05;;;;;;;21.11;62.04;100683.75;5036058;28;20022;-73
2022/08/02 04:27:35;;;;;;;4.75;2.45;;;;;;;21.17;61.87;100680.69;5035998;28;20508;-73
2022/08/02 04:30:01;;;;;;;8.35;2.95;;;;;;;21.12;62.13;100681.94;5036056;28;20031;-72
2022/08/02 04:32:27;;;;;;;5.28;2.58;;;;;;;21.17;61.73;100694.03;5034448;28;20477;-73
2022/08/02 04:34:52;;;;;;;5.00;2.50;;;;;;;21.20;61.53;100693.00;5035752;28;20083;-73
2022/08/02 04:37:18;;;;;;;5.80;2.15;;;;;;;21.21;61.56;100686.69;5035618;28;20069;-73
2022/08/02 04:39:43;;;;;;;6.82;2.88;;;;;;;21.23;61.55;100692.84;5036002;28;20041;-73
2022/08/02 04:42:09;;;;;;;5.15;2.05;;;;;;;21.37;61.08;100695.53;5034646;28;20433;-73
2022/08/02 04:44:35;;;;;;;4.47;2.35;;;;;;;21.53;60.23;100695.44;5034311;28;20037;-72
2022/08/02 04:47:02;;;;;;;3.15;1.80;;;;;;;21.70;60.14;100707.75;5035490;28;20034;-66
2022/08/02 04:49:28;;;;;;;4.82;2.28;;;;;;;21.69;60.13;100703.38;5035614;28;20072;-67
2022/08/02 04:51:54;;;;;;;7.97;2.72;;;;;;;21.98;59.15;100703.31;5034472;28;20029;-67
2022/08/02 04:54:20;;;;;;;5.07;2.03;;;;;;;21.83;59.84;100699.84;5034306;28;20033;-68
2022/08/02 04:56:45;;;;;;;5.53;2.30;;;;;;;21.85;59.75;100705.94;5034522;28;20373;-66
2022/08/02 04:59:11;;;;;;;6.18;2.30;;;;;;;21.83;59.94;100705.19;5034134;28;20474;-67
2022/08/02 05:01:38;;;;;;;3.58;2.13;;;;;;;21.97;59.48;100709.63;5034149;28;20026;-68
2022/08/02 05:04:04;;;;;;;7.55;2.55;;;;;;;22.00;59.12;100706.78;5035331;28;20380;-67
2022/08/02 05:06:31;;;;;;;7.70;2.30;;;;;;;22.31;58.28;100714.56;5034070;28;20028;-68
2022/08/02 05:08:56;;;;;;;7.78;2.92;;;;;;;22.21;58.69;100713.44;5034020;28;20036;-67
2022/08/02 05:11:23;;;;;;;5.75;2.30;;;;;;;22.08;59.22;100718.69;5035272;28;20033;-67
2022/08/02 05:13:49;;;;;;;6.03;1.98;;;;;;;22.20;58.74;100727.78;5035527;28;20029;-67
2022/08/02 05:16:14;;;;;;;3.63;2.03;;;;;;;22.38;58.32;100726.59;5035059;28;20393;-67
2022/08/02 05:18:39;;;;;;;9.13;2.42;;;;;;;22.41;58.34;100724.66;5035167;28;20047;-67
2022/08/02 05:21:05;;;;;;;5.32;2.20;;;;;;;22.53;58.07;100734.56;5017245;28;20029;-67
2022/08/02 05:23:30;;;;;;;6.63;2.55;;;;;;;22.50;58.05;100740.13;5017171;28;20037;-67
2022/08/02 05:25:56;;;;;;;5.25;2.17;;;;;;;22.44;58.07;100730.69;5016769;28;20120;-66
2022/08/02 05:28:21;;;;;;;11.48;2.47;;;;;;;22.37;58.05;100740.06;5034580;28;20030;-67
2022/08/02 05:30:47;;;;;;;6.43;2.33;;;;;;;22.45;58.19;100750.28;5034762;28;20109;-68
2022/08/02 05:33:12;;;;;;;8.05;2.55;;;;;;;22.27;58.43;100741.66;5034814;28;20037;-67
2022/08/02 05:35:37;;;;;;;4.28;1.90;;;;;;;22.42;57.98;100742.44;5034682;28;20392;-67
2022/08/02 05:38:03;;;;;;;6.28;2.10;;;;;;;22.43;58.34;100746.88;5034691;28;20049;-68
2022/08/02 05:40:28;;;;;;;7.97;2.03;;;;;;;22.37;57.91;100740.94;5033473;28;20026;-67
2022/08/02 05:42:54;;;;;;;6.88;2.67;;;;;;;22.43;57.95;100754.91;5034654;28;20025;-67
2022/08/02 05:45:20;;;;;;;5.43;2.05;;;;;;;22.28;57.96;100757.59;5032938;28;20064;-67
2022/08/02 05:47:45;;;;;;;5.25;2.00;;;;;;;22.39;57.77;100759.59;5033126;28;20033;-68
2022/08/02 05:50:11;;;;;;;5.72;1.92;;;;;;;22.48;57.50;100761.66;5033525;28;20420;-67
2022/08/02 05:53:02;;;;;;;5.68;1.65;;;;;;;22.63;57.17;100763.31;5034652;28;20033;-67
2022/08/02 05:55:33;;;;;;;5.53;2.03;;;;;;;22.33;57.66;100776.88;5034899;28;20025;-67
2022/08/02 05:58:01;;;;;;;5.88;1.80;;;;;;;22.35;57.21;100771.44;5034443;28;20017;-67
2022/08/02 06:00:30;;;;;;;7.32;2.00;;;;;;;22.58;56.87;100767.25;5032902;28;20025;-67
2022/08/02 06:03:15;;;;;;;4.60;1.73;;;;;;;22.98;55.89;100768.19;5033057;28;20444;-68
2022/08/02 06:05:49;;;;;;;4.30;2.00;;;;;;;23.06;55.72;100773.91;5032917;28;20032;-68
2022/08/02 06:08:14;;;;;;;9.90;2.30;;;;;;;23.24;55.17;100774.44;5033991;28;20087;-67
2022/08/02 06:10:45;;;;;;;5.18;1.80;;;;;;;23.37;54.38;100774.47;5032390;28;20049;-68
2022/08/02 06:13:13;;;;;;;7.55;1.70;;;;;;;23.34;54.63;100777.38;5032851;28;20033;-68
2022/08/02 06:15:39;;;;;;;7.18;1.83;;;;;;;23.14;55.20;100772.50;5032830;28;20091;-68
2022/08/02 06:18:06;;;;;;;6.38;2.10;;;;;;;23.24;54.73;100768.25;5033922;28;20029;-67
2022/08/02 06:20:35;;;;;;;3.97;1.50;;;;;;;23.19;54.85;100770.38;5033917;28;20469;-68
2022/08/02 06:23:06;;;;;;;5.40;1.70;;;;;;;23.14;54.55;100769.81;5016506;28;20124;-68
2022/08/02 06:25:37;;;;;;;7.47;1.75;;;;;;;23.21;54.66;100771.97;5032441;28;20091;-68
2022/08/02 06:28:05;;;;;;;6.25;1.92;;;;;;;23.17;54.73;100775.81;5033885;28;20030;-68
2022/08/02 06:30:31;;;;;;;4.95;1.42;;;;;;;23.13;55.08;100785.03;5033747;28;20473;-67
2022/08/02 06:32:57;;;;;;;6.32;1.65;;;;;;;23.29;54.60;100788.41;5033600;28;20071;-67
2022/08/02 06:35:30;;;;;;;5.38;2.00;;;;;;;23.44;54.00;100788.31;5033509;28;20359;-68
2022/08/02 06:37:59;;;;;;;5.53;1.55;;;;;;;23.36;54.04;100795.06;5032714;28;20088;-68
2022/08/02 06:41:00;;;;;;;5.68;1.45;;;;;;;23.51;53.36;100784.25;5032308;28;20412;-68
2022/08/02 06:43:30;;;;;;;6.07;1.50;;;;;;;23.70;52.67;100783.84;5033470;28;20531;-68
2022/08/02 06:45:55;;;;;;;6.38;1.40;;;;;;;23.72;52.39;100790.81;5033567;28;20034;-68
2022/08/02 06:48:21;;;;;;;3.72;1.63;;;;;;;23.97;51.92;100792.63;5032100;28;20481;-68
2022/08/02 06:50:46;;;;;;;4.85;1.35;;;;;;;23.78;51.86;100801.16;5015711;28;20025;-68
2022/08/02 06:53:12;;;;;;;4.38;1.38;;;;;;;23.64;51.86;100793.16;5032177;28;20030;-69
2022/08/02 06:55:38;;;;;;;6.50;1.48;;;;;;;23.56;51.67;100806.25;5033413;28;20056;-68
2022/08/02 06:58:03;;;;;;;4.88;1.35;;;;;;;23.61;51.32;100804.94;5015552;28;20465;-68
2022/08/02 07:00:29;;;;;;;5.85;1.40;;;;;;;23.93;50.70;100803.69;5033264;28;20116;-68
2022/08/02 07:02:55;;;;;;;6.30;1.25;;;;;;;24.16;50.16;100802.06;5033339;28;20045;-68
2022/08/02 07:05:20;;;;;;;2.65;1.15;;;;;;;24.49;49.57;100796.09;5033383;28;20072;-68
2022/08/02 07:07:46;;;;;;;4.15;1.00;;;;;;;24.81;49.32;100797.25;5033392;28;20029;-68
2022/08/02 07:10:12;;;;;;;3.53;0.98;;;;;;;24.91;48.73;100799.28;5032137;28;20067;-68
2022/08/02 07:12:38;;;;;;;6.03;1.40;;;;;;;24.71;48.55;100798.91;5033128;28;20060;-68
2022/08/02 07:15:07;;;;;;;6.53;1.38;;;;;;;24.69;46.94;100798.16;5031707;28;20025;-68
2022/08/02 07:17:36;;;;;;;7.80;1.50;;;;;;;24.55;47.89;100792.97;5033253;28;20022;-68
2022/08/02 07:20:02;;;;;;;2.83;1.20;;;;;;;24.57;47.57;100788.31;5031811;28;20025;-69
2022/08/02 07:22:28;;;;;;;4.18;1.35;;;;;;;24.60;46.86;100793.47;5031985;28;20049;-68
2022/08/02 07:24:56;;;;;;;3.97;0.98;;;;;;;24.76;46.39;100796.75;5031803;28;20064;-67
2022/08/02 07:27:21;;;;;;;4.20;1.17;;;;;;;24.88;46.11;100791.44;5032945;28;20022;-68
2022/08/02 07:29:47;;;;;;;3.65;1.00;;;;;;;24.83;45.90;100806.06;5033299;28;20396;-68
2022/08/02 07:32:21;;;;;;;4.72;1.40;;;;;;;24.86;44.78;100798.75;5033372;28;20038;-68
2022/08/02 07:34:48;;;;;;;4.32;1.30;;;;;;;24.72;45.86;100814.06;5033126;28;20076;-68
2022/08/02 07:37:13;;;;;;;6.65;1.25;;;;;;;24.67;45.48;100815.38;5033005;28;20094;-68
2022/08/02 07:39:38;;;;;;;3.20;1.00;;;;;;;24.92;44.46;100809.03;5032980;28;20475;-68
2022/08/02 07:42:04;;;;;;;4.03;1.20;;;;;;;24.96;44.02;100822.13;5032875;28;20152;-68
2022/08/02 07:44:36;;;;;;;4.25;0.93;;;;;;;25.12;43.84;100805.72;5031648;28;20041;-68
2022/08/02 07:47:02;;;;;;;4.07;1.38;;;;;;;25.06;43.99;100819.63;5032930;28;20025;-69
2022/08/02 07:49:29;;;;;;;3.63;0.90;;;;;;;24.99;43.21;100810.28;5035066;28;20075;-69
2022/08/02 07:51:54;;;;;;;8.73;1.10;;;;;;;25.08;43.02;100814.97;5036815;28;20036;-68
2022/08/02 07:54:20;;;;;;;5.43;1.20;;;;;;;25.27;42.46;100812.63;5036521;28;20025;-68
2022/08/02 07:56:46;;;;;;;5.38;0.90;;;;;;;25.38;41.86;100813.66;5018914;28;20033;-68
2022/08/02 07:59:11;;;;;;;3.50;0.93;;;;;;;25.41;41.24;100814.25;5036584;28;20530;-68
2022/08/02 08:01:37;;;;;;;1.77;0.68;;;;;;;25.33;41.09;100815.81;5036732;28;20080;-68
2022/08/02 08:04:03;;;;;;;4.18;0.85;;;;;;;25.29;38.14;100813.38;5036563;28;20023;-69
2022/08/02 08:06:30;;;;;;;3.58;1.02;;;;;;;25.20;39.13;100818.59;5035214;28;20032;-68
2022/08/02 08:08:56;;;;;;;4.13;1.00;;;;;;;25.37;39.02;100817.31;5035015;28;20381;-69
2022/08/02 08:11:21;;;;;;;3.47;0.90;;;;;;;25.61;38.60;100818.09;5036392;28;20522;-69
2022/08/02 08:13:47;;;;;;;6.45;0.82;;;;;;;25.45;38.50;100818.41;5036465;28;20029;-69
2022/08/02 08:16:12;;;;;;;3.83;0.93;;;;;;;25.42;39.04;100813.31;5036312;28;20362;-69
2022/08/02 08:18:38;;;;;;;3.17;0.90;;;;;;;25.48;37.64;100820.03;5034804;28;20465;-70
2022/08/02 08:21:04;;;;;;;4.85;0.90;;;;;;;25.45;37.63;100820.25;5034940;28;20120;-68
2022/08/02 08:23:30;;;;;;;4.40;1.25;;;;;;;25.46;37.86;100822.00;5036234;28;20036;-69
2022/08/02 08:25:58;;;;;;;3.03;0.70;;;;;;;25.52;36.29;100825.03;5035990;28;20030;-69
2022/08/02 08:28:23;;;;;;;5.20;1.20;;;;;;;25.45;37.04;100828.31;5034682;28;20033;-69
2022/08/02 08:30:51;;;;;;;4.05;0.90;;;;;;;25.93;36.21;100823.69;5034799;28;20385;-69
2022/08/02 08:33:17;;;;;;;4.00;0.85;;;;;;;25.95;37.87;100820.88;5036070;28;20041;-69
2022/08/02 08:35:45;;;;;;;4.80;1.25;;;;;;;25.20;37.49;100832.91;5034697;28;20038;-69
2022/08/02 08:38:10;;;;;;;5.30;1.13;;;;;;;25.58;37.63;100822.88;5035605;28;20057;-68
2022/08/02 08:40:36;;;;;;;4.07;0.98;;;;;;;25.74;37.20;100813.50;5035719;28;20032;-68
2022/08/02 08:43:02;;;;;;;3.67;1.20;;;;;;;25.89;36.76;100821.34;5034454;28;20033;-68
2022/08/02 08:45:28;;;;;;;3.85;0.82;;;;;;;25.57;37.11;100819.31;5034589;28;20091;-68
2022/08/02 08:48:07;;;;;;;3.42;0.80;;;;;;;25.71;35.57;100816.41;5035630;28;20412;-68
2022/08/02 08:50:35;;;;;;;3.92;0.98;;;;;;;25.86;35.04;100817.09;5035763;28;20029;-69
2022/08/02 08:53:02;;;;;;;3.72;0.63;;;;;;;25.74;35.35;100821.56;5034329;28;20026;-68
2022/08/02 08:55:29;;;;;;;4.75;0.73;;;;;;;25.88;35.29;100825.03;5035480;28;20056;-68
2022/08/02 08:57:56;;;;;;;3.13;0.60;;;;;;;25.83;34.15;100821.84;5035474;28;20021;-68
2022/08/02 09:00:22;;;;;;;7.97;0.82;;;;;;;25.84;34.53;100818.16;5034556;28;20418;-69
2022/08/02 09:02:49;;;;;;;3.95;0.80;;;;;;;25.81;34.34;100824.63;5035436;28;20022;-68
2022/08/02 09:05:18;;;;;;;2.45;0.70;;;;;;;25.90;34.11;100821.25;5036042;28;20116;-69
2022/08/02 09:07:48;;;;;;;3.03;0.70;;;;;;;25.88;32.30;100825.03;5035202;28;20030;-69
2022/08/02 09:10:32;;;;;;;5.38;0.88;;;;;;;25.81;33.31;100830.03;5035226;28;20072;-69
2022/08/02 09:13:11;;;;;;;5.53;0.80;;;;;;;25.89;32.72;100824.88;5034083;28;20087;-69
2022/08/02 09:15:38;;;;;;;4.45;0.80;;;;;;;25.95;33.93;100827.13;5035283;28;20099;-68
2022/08/02 09:18:05;;;;;;;3.92;0.80;;;;;;;26.23;35.45;100828.47;5033749;28;20025;-68
2022/08/02 09:20:35;;;;;;;2.40;0.70;;;;;;;26.46;35.78;100820.41;5035127;28;20091;-68
2022/08/02 09:23:08;;;;;;;2.03;0.77;;;;;;;26.46;32.56;100831.19;5033970;28;20033;-69
2022/08/02 09:26:23;;;;;;;4.15;0.80;;;;;;;26.34;34.90;100826.75;5034980;28;20477;-68
2022/08/02 09:28:50;;;;;;;3.22;0.80;;;;;;;26.57;34.08;100823.09;5034139;28;20091;-68
2022/08/02 09:31:21;;;;;;;3.92;1.00;;;;;;;26.38;33.24;100829.06;5033506;28;20121;-69
2022/08/02 09:33:54;;;;;;;3.88;0.50;;;;;;;26.83;34.76;100823.63;5034935;28;20040;-69
2022/08/02 09:36:20;;;;;;;2.85;0.70;;;;;;;27.10;33.21;100809.72;5016828;28;20112;-69
2022/08/02 09:38:52;;;;;;;2.83;0.77;;;;;;;27.31;33.11;100822.34;5033445;28;20030;-69
2022/08/02 09:41:26;;;;;;;6.53;1.20;;;;;;;27.29;32.00;100811.72;5034542;28;20052;-69
2022/08/02 09:43:52;;;;;;;4.05;1.05;;;;;;;27.06;33.07;100812.75;5034590;28;20083;-69
2022/08/02 09:46:19;;;;;;;4.57;0.80;;;;;;;26.98;32.79;100805.31;5034652;28;20033;-69
2022/08/02 09:48:52;;;;;;;3.33;0.70;;;;;;;26.66;31.60;100803.44;5034331;28;20022;-69
2022/08/02 09:51:31;;;;;;;3.88;0.80;;;;;;;26.87;31.75;100802.66;5033048;28;20030;-69
2022/08/02 09:53:59;;;;;;;3.60;0.68;;;;;;;26.67;32.93;100813.25;5034431;28;20033;-70
2022/08/02 09:56:37;;;;;;;5.20;0.88;;;;;;;26.77;31.97;100803.44;5034429;28;20029;-69
2022/08/02 09:59:06;;;;;;;3.30;0.80;;;;;;;26.80;32.71;100807.69;5034338;28;20439;-70
2022/08/02 10:01:33;;;;;;;5.30;0.93;;;;;;;26.82;32.91;100808.44;5033043;28;20473;-69
2022/08/02 10:04:01;;;;;;;6.20;0.90;;;;;;;26.89;32.94;100806.94;5034101;28;20032;-70
2022/08/02 10:06:30;;;;;;;5.28;0.70;;;;;;;27.17;32.86;100800.13;5034027;28;20034;-70
2022/08/02 10:08:56;;;;;;;2.70;0.80;;;;;;;27.42;32.82;100798.03;5033975;28;20025;-70
2022/08/02 10:11:24;;;;;;;5.75;0.98;;;;;;;27.16;32.25;100803.78;5034005;28;20026;-69
2022/08/02 10:13:50;;;;;;;1.48;0.70;;;;;;;27.21;31.57;100812.34;5033237;28;20033;-70
2022/08/02 10:16:18;;;;;;;3.58;0.80;;;;;;;26.92;31.58;100806.66;5033951;28;20053;-70
2022/08/02 10:18:44;;;;;;;3.28;0.90;;;;;;;27.46;32.05;100791.38;5033920;28;20057;-70
2022/08/02 10:21:28;;;;;;;4.40;0.80;;;;;;;27.73;32.26;100790.81;5032634;28;20033;-70
2022/08/02 10:24:08;;;;;;;4.32;0.50;;;;;;;27.69;27.45;100795.63;5033795;28;20033;-69
2022/08/02 10:26:37;;;;;;;2.65;0.57;;;;;;;27.56;28.67;100799.50;5033994;28;20025;-70
2022/08/02 10:29:03;;;;;;;2.17;0.47;;;;;;;27.82;28.04;100789.19;5033859;28;20028;-70
2022/08/02 10:31:42;;;;;;;2.35;0.60;;;;;;;27.66;25.00;100801.28;5032596;28;20396;-70
2022/08/02 10:34:11;;;;;;;2.30;0.77;;;;;;;27.87;25.37;100790.47;5033999;28;20048;-70
2022/08/02 10:36:39;;;;;;;2.38;0.55;;;;;;;27.90;25.61;100786.66;5032248;28;20091;-70
2022/08/02 10:39:06;;;;;;;3.20;0.98;;;;;;;28.13;25.48;100787.34;5033666;28;20025;-70
2022/08/02 10:41:45;;;;;;;2.47;0.43;;;;;;;28.18;23.53;100788.63;5032387;28;20033;-70
2022/08/02 10:44:33;;;;;;;2.20;0.60;;;;;;;28.13;23.87;100788.19;5033738;28;20051;-70
2022/08/02 10:47:17;;;;;;;1.98;0.50;;;;;;;28.10;24.41;100793.84;5033552;28;20056;-70
2022/08/02 10:49:57;;;;;;;2.70;0.90;;;;;;;28.02;24.52;100792.84;5033575;28;20029;-70
2022/08/02 10:52:27;;;;;;;1.65;0.60;;;;;;;28.47;26.74;100785.19;5033535;28;20473;-70
2022/08/02 10:55:00;;;;;;;1.55;0.52;;;;;;;28.76;27.98;100785.22;5032254;28;20432;-70
2022/08/02 10:57:27;;;;;;;2.47;0.55;;;;;;;29.01;27.74;100800.09;5033385;28;20037;-70
2022/08/02 11:00:11;;;;;;;2.05;0.47;;;;;;;29.09;26.69;100792.09;5033324;28;20441;-70
2022/08/02 11:02:40;;;;;;;2.53;0.50;;;;;;;29.34;26.88;100782.53;5033466;28;20029;-70
2022/08/02 11:05:07;;;;;;;2.97;0.63;;;;;;;29.39;26.71;100790.22;5033443;28;20377;-71
2022/08/02 11:07:36;;;;;;;1.80;0.77;;;;;;;29.33;25.73;100788.97;5031994;28;20473;-70
2022/08/02 11:10:31;;;;;;;1.58;0.60;;;;;;;29.57;24.63;100779.53;5033065;28;20057;-69
2022/08/02 11:12:58;;;;;;;5.03;0.80;;;;;;;29.61;26.61;100781.81;5030564;28;20120;-70
2022/08/02 11:15:24;;;;;;;1.63;0.40;;;;;;;29.83;27.43;100779.72;5031682;28;20036;-70
2022/08/02 11:18:00;;;;;;;0.90;0.57;;;;;;;29.94;26.29;100776.84;5031786;28;20022;-69
2022/08/02 11:20:26;;;;;;;3.00;0.40;;;;;;;30.01;27.38;100772.53;5033259;28;20167;-69
2022/08/02 11:22:53;;;;;;;2.47;0.60;;;;;;;30.16;26.02;100781.03;5033117;28;20033;-70
2022/08/02 11:25:22;;;;;;;1.85;0.82;;;;;;;29.79;24.53;100783.72;5035250;28;20021;-70
2022/08/02 11:28:16;;;;;;;2.25;1.00;;;;;;;29.60;25.34;100777.38;5035771;28;20048;-70
2022/08/02 11:30:42;;;;;;;3.58;0.60;;;;;;;29.31;25.02;100768.44;5030094;28;20076;-71
2022/08/02 11:33:07;;;;;;;2.72;0.50;;;;;;;29.09;24.73;100775.88;5035620;28;20060;-70
2022/08/02 11:35:38;;;;;;;3.05;0.50;;;;;;;29.04;25.18;100770.03;5019080;28;20029;-70
2022/08/02 11:38:17;;;;;;;4.32;0.60;;;;;;;29.22;24.44;100775.56;5035555;28;20071;-70